Virden, New Mexico
Current Conditions -  °F | °C
As of 9:35 AM on Saturday 22 Nov 2014 (Local Time) from KLSB Reporting Station
Clear Clear  
Wind Chill: 50°   Ceiling: Unl
Heat Index: 50°   Visibility: 10mi
Dew Point: 25°   Wind: 7mph
Humidity: 37%   Direction: 300°WNW
Pressure: 30.12"   Gusts: NA
Location:  32.3095°N, 108.813°W
Report Text: KLSB 221635Z AUTO 30006KT 10SM CLR 10/M04 A3012 RMK AO2 LTG DSNT NE AND E
Loading
Personal Weather Stations






























Interactive Weather Map New forecast layout! Learn more

10-Day Weather Forecast

Advertisements
Track Severe Weather on mobile